createdAt,value
2023-05-04T00:01:33.971Z,4.32
2023-05-04T00:04:36.984Z,4.32
2023-05-04T00:07:40.006Z,4.45
2023-05-04T00:10:42.993Z,4.13
2023-05-04T00:13:45.975Z,4.40
2023-05-04T00:16:49.084Z,4.30
2023-05-04T00:19:52.103Z,4.80
2023-05-04T00:22:55.140Z,4.40
2023-05-04T00:26:01.117Z,4.97
2023-05-04T00:29:04.052Z,4.83
2023-05-04T00:32:07.241Z,4.38
2023-05-04T00:35:10.409Z,4.82
2023-05-04T00:38:13.801Z,4.63
2023-05-04T00:41:17.534Z,4.43
2023-05-04T00:44:23.543Z,4.53
2023-05-04T00:47:26.966Z,4.38
2023-05-04T00:50:30.158Z,5.00
2023-05-04T00:53:33.135Z,4.18
2023-05-04T00:56:42.147Z,4.13
2023-05-04T00:59:45.204Z,3.93
2023-05-04T01:02:49.213Z,4.65
2023-05-04T01:06:04.586Z,4.80
2023-05-04T01:09:12.511Z,4.15
2023-05-04T01:12:21.939Z,4.20
2023-05-04T01:15:24.977Z,3.73
2023-05-04T01:18:27.934Z,3.72
2023-05-04T01:21:31.331Z,4.10
2023-05-04T01:24:34.282Z,3.55
2023-05-04T01:27:46.803Z,3.90
2023-05-04T01:30:51.562Z,3.77
2023-05-04T01:33:55.195Z,3.83
2023-05-04T01:36:58.154Z,3.92
2023-05-04T01:40:01.500Z,3.72
2023-05-04T01:43:04.726Z,3.40
2023-05-04T01:46:07.721Z,3.20
2023-05-04T01:49:10.696Z,3.90
2023-05-04T01:52:13.614Z,3.80
2023-05-04T01:55:16.676Z,3.97
2023-05-04T01:58:19.803Z,3.10
2023-05-04T02:01:22.807Z,3.40
2023-05-04T02:04:25.794Z,3.53
2023-05-04T02:07:28.749Z,3.15
2023-05-04T02:10:31.794Z,3.80
2023-05-04T02:13:34.775Z,3.20
2023-05-04T02:16:37.901Z,3.43
2023-05-04T02:19:40.890Z,3.00
2023-05-04T02:22:43.894Z,3.75
2023-05-04T02:25:46.819Z,3.17
2023-05-04T02:28:49.753Z,3.40
2023-05-04T02:31:52.748Z,3.27
2023-05-04T02:34:56.095Z,3.30
2023-05-04T02:37:59.042Z,3.60
2023-05-04T02:41:02.371Z,3.28
2023-05-04T02:44:05.454Z,3.20
2023-05-04T02:47:08.415Z,3.00
2023-05-04T02:50:11.487Z,3.00
2023-05-04T02:53:14.473Z,2.90
2023-05-04T02:56:17.476Z,3.58
2023-05-04T02:59:20.692Z,3.40
2023-05-04T03:02:23.744Z,3.47
2023-05-04T03:05:26.696Z,3.30
2023-05-04T03:08:30.234Z,3.40
2023-05-04T03:11:33.749Z,3.35
2023-05-04T03:14:36.936Z,3.07
2023-05-04T03:17:40.047Z,3.33
2023-05-04T03:20:43.123Z,3.58
2023-05-04T03:23:50.453Z,3.20
2023-05-04T03:26:53.452Z,3.20
2023-05-04T03:29:56.447Z,2.87
2023-05-04T03:33:00.470Z,3.17
2023-05-04T03:36:04.655Z,3.20
2023-05-04T03:39:07.945Z,2.63
2023-05-04T03:42:12.197Z,3.05
2023-05-04T03:45:15.211Z,3.27
2023-05-04T03:48:18.255Z,3.23
2023-05-04T03:51:21.743Z,3.30
2023-05-04T03:54:24.714Z,3.10
2023-05-04T03:57:27.728Z,3.10
2023-05-04T04:00:32.517Z,3.30
2023-05-04T04:03:44.785Z,2.87
2023-05-04T04:06:47.835Z,3.40
2023-05-04T04:09:52.380Z,2.97
2023-05-04T04:12:55.475Z,2.90
2023-05-04T04:15:58.521Z,3.47
2023-05-04T04:19:02.145Z,3.30
2023-05-04T04:22:05.103Z,3.03
2023-05-04T04:25:09.011Z,3.00
2023-05-04T04:28:12.560Z,3.55
2023-05-04T04:31:15.542Z,3.03
2023-05-04T04:34:18.708Z,2.90
2023-05-04T04:37:21.864Z,3.38
2023-05-04T04:40:24.912Z,3.45
2023-05-04T04:43:27.893Z,3.00
2023-05-04T04:46:30.895Z,3.13
2023-05-04T04:49:33.946Z,3.50
2023-05-04T04:52:37.158Z,3.03
2023-05-04T04:55:40.107Z,3.00
2023-05-04T04:58:43.034Z,2.83
2023-05-04T05:01:45.999Z,3.10
2023-05-04T05:04:49.002Z,2.90
2023-05-04T05:07:51.985Z,3.33
2023-05-04T05:10:54.978Z,3.00
2023-05-04T05:13:59.874Z,2.80
2023-05-04T05:17:06.579Z,3.23
2023-05-04T05:20:12.879Z,2.80
2023-05-04T05:23:16.436Z,2.90
2023-05-04T05:26:19.487Z,2.60
2023-05-04T05:29:22.442Z,2.60
2023-05-04T05:32:25.440Z,2.50
2023-05-04T05:35:28.425Z,2.67
2023-05-04T05:38:31.526Z,3.00
2023-05-04T05:41:34.519Z,2.63
2023-05-04T05:44:37.621Z,2.55
2023-05-04T05:47:40.888Z,2.43
2023-05-04T05:50:43.990Z,2.50
2023-05-04T05:53:47.021Z,2.50
2023-05-04T05:56:50.063Z,2.55
2023-05-04T05:59:53.091Z,2.42
2023-05-04T06:02:56.352Z,2.70
2023-05-04T06:05:59.500Z,2.37
2023-05-04T06:09:02.627Z,2.53
2023-05-04T06:12:07.201Z,2.92
2023-05-04T06:15:13.125Z,2.67
2023-05-04T06:18:16.414Z,2.50
2023-05-04T06:21:19.375Z,2.80
2023-05-04T06:24:23.045Z,2.60
2023-05-04T06:27:28.891Z,2.50
2023-05-04T06:30:31.940Z,2.70
2023-05-04T06:33:34.982Z,2.20
2023-05-04T06:36:38.036Z,2.40
2023-05-04T06:39:41.048Z,2.88
2023-05-04T06:42:44.152Z,2.28
2023-05-04T06:45:47.227Z,2.80
2023-05-04T06:48:50.272Z,2.60
2023-05-04T06:51:53.216Z,2.70
2023-05-04T06:54:56.194Z,2.50
2023-05-04T06:57:59.175Z,2.70
2023-05-04T07:01:02.168Z,2.75
2023-05-04T07:04:08.855Z,2.50
2023-05-04T07:07:16.020Z,2.70
2023-05-04T07:10:19.709Z,2.97
2023-05-04T07:13:22.904Z,2.53
2023-05-04T07:16:26.492Z,2.72
2023-05-04T07:19:32.539Z,2.43
2023-05-04T07:22:44.997Z,3.03
2023-05-04T07:25:47.969Z,2.78
2023-05-04T07:28:51.064Z,3.22
2023-05-04T07:31:54.085Z,3.10
2023-05-04T07:34:57.475Z,3.03
2023-05-04T07:38:03.410Z,4.33
2023-05-04T07:41:07.358Z,3.47
2023-05-04T07:44:12.617Z,3.50
2023-05-04T07:47:15.650Z,3.42
2023-05-04T07:50:19.280Z,2.70
2023-05-04T07:53:22.309Z,2.90
2023-05-04T07:56:25.553Z,2.70
2023-05-04T07:59:28.586Z,2.80
2023-05-04T08:02:31.626Z,2.70
2023-05-04T08:05:34.718Z,2.73
2023-05-04T08:08:37.833Z,2.83
2023-05-04T08:11:40.958Z,2.53
2023-05-04T08:14:46.658Z,2.80
2023-05-04T08:17:49.714Z,3.03
2023-05-04T08:20:52.772Z,2.73
2023-05-04T08:23:56.062Z,2.70
2023-05-04T08:27:07.181Z,3.00
2023-05-04T08:30:11.592Z,2.60
2023-05-04T08:33:14.549Z,2.90
2023-05-04T08:36:17.640Z,2.80
2023-05-04T08:39:20.834Z,2.50
2023-05-04T08:42:30.109Z,2.53
2023-05-04T08:45:33.487Z,2.70
2023-05-04T08:48:37.056Z,3.70
2023-05-04T08:51:40.192Z,3.13
2023-05-04T08:54:43.502Z,3.00
2023-05-04T08:57:46.492Z,3.47
2023-05-04T09:00:49.846Z,3.30
2023-05-04T09:03:53.164Z,3.00
2023-05-04T09:06:56.958Z,2.93
2023-05-04T09:09:59.917Z,3.07
2023-05-04T09:13:03.427Z,3.00
2023-05-04T09:16:07.705Z,2.92
2023-05-04T09:19:20.387Z,3.45
2023-05-04T09:22:23.879Z,3.20
2023-05-04T09:25:27.234Z,4.40
2023-05-04T09:28:38.720Z,3.28
2023-05-04T09:31:45.185Z,3.15
2023-05-04T09:34:51.688Z,4.03
2023-05-04T09:37:54.736Z,3.50
2023-05-04T09:40:57.677Z,3.50
2023-05-04T09:44:00.688Z,3.70
2023-05-04T09:47:03.666Z,3.58
2023-05-04T09:50:20.683Z,3.35
2023-05-04T09:53:28.356Z,4.20
2023-05-04T09:56:37.678Z,3.60
2023-05-04T09:59:40.866Z,3.38
2023-05-04T10:02:53.572Z,2.95
2023-05-04T10:06:01.082Z,3.60
2023-05-04T10:09:06.473Z,4.30
2023-05-04T10:12:09.432Z,3.80
2023-05-04T10:15:12.756Z,3.00
2023-05-04T10:18:24.869Z,3.35
2023-05-04T10:21:42.828Z,3.42
2023-05-04T10:25:19.427Z,3.17
2023-05-04T10:28:43.373Z,3.63
2023-05-04T10:31:46.635Z,3.35
2023-05-04T10:34:49.757Z,3.55
2023-05-04T10:37:54.690Z,4.22
2023-05-04T10:40:57.772Z,4.17
2023-05-04T10:44:05.083Z,4.07
2023-05-04T10:47:09.712Z,3.97
2023-05-04T10:50:15.800Z,4.50
2023-05-04T10:53:19.125Z,4.20
2023-05-04T10:56:25.916Z,3.70
2023-05-04T10:59:28.870Z,4.30
2023-05-04T11:02:34.074Z,4.30
2023-05-04T11:05:43.876Z,5.00
2023-05-04T11:08:50.414Z,4.32
2023-05-04T11:11:54.645Z,4.30
2023-05-04T11:15:24.336Z,3.73
2023-05-04T11:18:31.569Z,3.65
2023-05-04T11:21:34.523Z,4.38
2023-05-04T11:24:44.590Z,3.90
2023-05-04T11:27:49.665Z,3.30
2023-05-04T11:30:56.054Z,3.70
2023-05-04T11:33:59.261Z,4.15
2023-05-04T11:37:04.002Z,5.13
2023-05-04T11:40:25.804Z,5.30
2023-05-04T11:43:28.850Z,5.60
2023-05-04T11:46:33.320Z,5.30
2023-05-04T11:49:36.449Z,5.38
2023-05-04T11:52:40.603Z,5.55
2023-05-04T11:55:43.557Z,4.53
2023-05-04T11:58:46.566Z,5.30
2023-05-04T12:01:49.690Z,5.20
2023-05-04T12:04:53.075Z,6.00
2023-05-04T12:07:56.126Z,5.10
2023-05-04T12:11:20.557Z,3.20
2023-05-04T12:14:24.680Z,2.87
2023-05-04T12:17:28.466Z,3.38
2023-05-04T12:20:31.791Z,3.90
2023-05-04T12:23:36.525Z,3.35
2023-05-04T12:26:39.465Z,3.20
2023-05-04T12:29:42.456Z,3.50
2023-05-04T12:32:45.415Z,3.65
2023-05-04T12:35:48.415Z,4.60
2023-05-04T12:38:51.378Z,5.15
2023-05-04T12:41:54.319Z,5.47
2023-05-04T12:44:57.397Z,4.87
2023-05-04T12:48:00.504Z,5.75
2023-05-04T12:51:06.313Z,5.90
2023-05-04T12:54:09.314Z,5.70
2023-05-04T12:57:12.445Z,4.60
2023-05-04T13:00:15.863Z,5.20
2023-05-04T13:03:19.052Z,5.05
2023-05-04T13:06:22.354Z,4.15
2023-05-04T13:09:25.302Z,3.72
2023-05-04T13:12:28.319Z,4.10
2023-05-04T13:15:33.151Z,4.07
2023-05-04T13:18:36.148Z,4.95
2023-05-04T13:21:39.108Z,3.72
2023-05-04T13:24:42.061Z,3.40
2023-05-04T13:27:45.071Z,3.38
2023-05-04T13:30:48.384Z,3.67
2023-05-04T13:33:51.354Z,3.60
2023-05-04T13:36:54.318Z,3.78
2023-05-04T13:39:57.306Z,3.33
2023-05-04T13:43:00.246Z,3.35
2023-05-04T13:46:04.088Z,3.50
2023-05-04T13:49:07.116Z,4.32
2023-05-04T13:52:10.244Z,3.80
2023-05-04T13:55:13.945Z,3.80
2023-05-04T13:58:17.361Z,3.60
2023-05-04T14:01:20.388Z,4.00
2023-05-04T14:04:23.605Z,3.50
2023-05-04T14:07:26.573Z,3.47
2023-05-04T14:10:29.518Z,3.97
2023-05-04T14:13:32.564Z,4.00
2023-05-04T14:16:37.480Z,3.90
2023-05-04T14:19:40.751Z,5.05
2023-05-04T14:22:44.078Z,3.92
2023-05-04T14:25:56.905Z,3.53
2023-05-04T14:28:59.944Z,3.75
2023-05-04T14:32:02.916Z,3.63
2023-05-04T14:35:09.019Z,3.92
2023-05-04T14:38:12.676Z,3.70
2023-05-04T14:41:15.750Z,3.50
2023-05-04T14:44:19.599Z,4.00
2023-05-04T14:47:22.733Z,3.77
2023-05-04T14:50:25.704Z,4.70
2023-05-04T14:53:29.962Z,3.90
2023-05-04T14:56:32.970Z,4.25
2023-05-04T14:59:37.584Z,3.92
2023-05-04T15:02:40.691Z,4.00
2023-05-04T15:05:43.781Z,4.50
2023-05-04T15:08:46.788Z,4.25
2023-05-04T15:11:49.867Z,4.30
2023-05-04T15:14:53.134Z,4.10
2023-05-04T15:17:56.150Z,3.90
2023-05-04T15:20:59.182Z,4.05
2023-05-04T15:24:02.269Z,4.20
2023-05-04T15:27:06.196Z,4.50
2023-05-04T15:30:10.225Z,4.38
2023-05-04T15:33:13.367Z,4.50
2023-05-04T15:36:16.321Z,4.40
2023-05-04T15:39:19.264Z,4.70
2023-05-04T15:42:22.220Z,4.43
2023-05-04T15:45:25.446Z,5.32
2023-05-04T15:48:28.453Z,4.70
2023-05-04T15:51:32.125Z,4.60
2023-05-04T15:54:35.202Z,4.78
2023-05-04T15:57:38.131Z,4.82
2023-05-04T16:00:41.152Z,5.05
2023-05-04T16:03:44.287Z,5.20
2023-05-04T16:06:47.830Z,4.70
2023-05-04T16:09:50.903Z,5.80
2023-05-04T16:12:53.904Z,5.40
2023-05-04T16:15:56.968Z,4.90
2023-05-04T16:18:59.919Z,5.27
2023-05-04T16:22:03.198Z,5.00
2023-05-04T16:25:07.427Z,4.90
2023-05-04T16:28:11.867Z,5.00
2023-05-04T16:31:15.129Z,4.80
2023-05-04T16:34:18.112Z,5.27
2023-05-04T16:37:21.215Z,4.78
2023-05-04T16:40:24.222Z,7.80
2023-05-04T16:43:27.346Z,7.20
2023-05-04T16:46:30.523Z,5.03
2023-05-04T16:49:33.976Z,5.80
2023-05-04T16:52:37.248Z,6.63
2023-05-04T16:55:40.829Z,6.78
2023-05-04T16:58:43.946Z,5.40
2023-05-04T17:01:47.873Z,4.43
2023-05-04T17:04:50.913Z,4.67
2023-05-04T17:07:54.129Z,5.40
2023-05-04T17:11:00.226Z,5.20
2023-05-04T17:14:03.730Z,4.80
2023-05-04T17:17:06.887Z,4.63
2023-05-04T17:20:14.926Z,4.80
2023-05-04T17:23:21.106Z,4.40
2023-05-04T17:26:24.077Z,4.93
2023-05-04T17:29:27.113Z,5.07
2023-05-04T17:32:30.884Z,4.43
2023-05-04T17:35:33.863Z,5.20
2023-05-04T17:38:36.798Z,4.80
2023-05-04T17:41:39.839Z,5.03
2023-05-04T17:44:42.793Z,5.18
2023-05-04T17:47:46.460Z,4.80
2023-05-04T17:50:49.491Z,5.07
2023-05-04T17:53:52.477Z,5.10
2023-05-04T17:56:55.460Z,4.85
2023-05-04T17:59:58.492Z,4.68
2023-05-04T18:03:01.527Z,4.90
2023-05-04T18:06:05.833Z,4.53
2023-05-04T18:09:08.949Z,4.53
2023-05-04T18:12:11.965Z,4.53
2023-05-04T18:15:16.464Z,4.57
2023-05-04T18:18:19.415Z,4.80
2023-05-04T18:21:23.453Z,4.70
2023-05-04T18:24:26.423Z,4.90
2023-05-04T18:27:33.550Z,4.55
2023-05-04T18:30:36.535Z,4.65
2023-05-04T18:33:39.490Z,4.43
2023-05-04T18:36:42.418Z,4.77
2023-05-04T18:39:45.687Z,4.55
2023-05-04T18:42:48.637Z,5.13
2023-05-04T18:45:51.677Z,4.60
2023-05-04T18:48:56.163Z,4.78
2023-05-04T18:52:00.639Z,5.17
2023-05-04T18:55:03.739Z,5.40
2023-05-04T18:58:06.773Z,5.53
2023-05-04T19:01:09.701Z,5.40
2023-05-04T19:04:12.710Z,4.82
2023-05-04T19:07:17.149Z,5.57
2023-05-04T19:10:20.090Z,5.13
2023-05-04T19:13:23.143Z,5.60
2023-05-04T19:16:29.197Z,5.35
2023-05-04T19:19:34.961Z,5.35
2023-05-04T19:22:37.928Z,5.83
2023-05-04T19:25:41.069Z,5.70
2023-05-04T19:28:44.034Z,6.47
2023-05-04T19:31:47.324Z,6.50
2023-05-04T19:34:50.344Z,6.15
2023-05-04T19:37:54.394Z,6.17
2023-05-04T19:40:57.476Z,6.55
2023-05-04T19:44:00.386Z,8.35
2023-05-04T19:47:03.551Z,7.03
2023-05-04T19:50:09.779Z,6.47
2023-05-04T19:53:12.940Z,6.50
2023-05-04T19:56:15.997Z,6.22
2023-05-04T19:59:19.378Z,6.65
2023-05-04T20:02:22.590Z,6.22
2023-05-04T20:05:25.707Z,6.43
2023-05-04T20:08:28.812Z,6.30
2023-05-04T20:11:31.785Z,6.65
2023-05-04T20:14:34.811Z,7.70
2023-05-04T20:17:38.153Z,6.90
2023-05-04T20:20:41.211Z,10.52
2023-05-04T20:23:44.161Z,9.33
2023-05-04T20:26:47.144Z,8.60
2023-05-04T20:29:50.073Z,9.27
2023-05-04T20:32:53.028Z,8.68
2023-05-04T20:35:55.952Z,8.38
2023-05-04T20:38:59.401Z,8.67
2023-05-04T20:42:04.671Z,8.60
2023-05-04T20:45:08.122Z,7.80
2023-05-04T20:48:11.357Z,7.28
2023-05-04T20:51:15.397Z,6.18
2023-05-04T20:54:18.686Z,4.70
2023-05-04T20:57:21.635Z,3.70
2023-05-04T21:00:24.839Z,4.10
2023-05-04T21:03:27.916Z,3.28
2023-05-04T21:06:31.322Z,3.90
2023-05-04T21:09:34.233Z,3.97
2023-05-04T21:12:37.311Z,3.10
2023-05-04T21:15:40.693Z,3.30
2023-05-04T21:18:45.265Z,3.17
2023-05-04T21:21:48.230Z,3.10
2023-05-04T21:24:51.285Z,3.07
2023-05-04T21:27:54.242Z,2.35
2023-05-04T21:30:57.469Z,2.63
2023-05-04T21:34:00.523Z,2.85
2023-05-04T21:37:04.059Z,3.08
2023-05-04T21:40:08.909Z,2.87
2023-05-04T21:43:11.991Z,2.75
2023-05-04T21:46:14.950Z,3.00
2023-05-04T21:49:17.950Z,2.53
2023-05-04T21:52:21.120Z,2.90
2023-05-04T21:55:24.079Z,2.73
2023-05-04T21:58:27.523Z,2.65
2023-05-04T22:01:30.521Z,3.15
2023-05-04T22:04:33.497Z,2.85
2023-05-04T22:07:37.143Z,2.53
2023-05-04T22:10:40.079Z,2.43
2023-05-04T22:13:42.985Z,2.35
2023-05-04T22:16:46.481Z,3.33
2023-05-04T22:19:49.518Z,2.35
2023-05-04T22:22:52.527Z,2.92
2023-05-04T22:25:56.097Z,2.60
2023-05-04T22:28:59.092Z,2.88
2023-05-04T22:32:02.070Z,2.75
2023-05-04T22:35:05.314Z,3.00
2023-05-04T22:38:08.260Z,2.65
2023-05-04T22:41:13.100Z,2.80
2023-05-04T22:44:16.041Z,2.70
2023-05-04T22:47:19.000Z,2.67
2023-05-04T22:50:21.988Z,2.65
2023-05-04T22:53:24.951Z,2.63
2023-05-04T22:56:27.992Z,2.40
2023-05-04T22:59:31.762Z,2.58
2023-05-04T23:02:35.171Z,2.70
2023-05-04T23:05:38.192Z,2.95
2023-05-04T23:08:41.333Z,2.80
2023-05-04T23:11:44.427Z,2.80
2023-05-04T23:14:51.592Z,2.72
2023-05-04T23:17:54.571Z,3.10
2023-05-04T23:20:57.526Z,2.88
2023-05-04T23:24:00.472Z,2.58
2023-05-04T23:27:03.506Z,2.70
2023-05-04T23:30:07.394Z,2.60
2023-05-04T23:33:10.639Z,2.90
2023-05-04T23:36:13.599Z,2.60
2023-05-04T23:39:16.912Z,3.15
2023-05-04T23:42:19.844Z,2.67
2023-05-04T23:45:22.836Z,3.20
2023-05-04T23:48:25.801Z,3.15
2023-05-04T23:51:28.786Z,2.72
2023-05-04T23:54:31.914Z,2.85
2023-05-04T23:57:34.903Z,2.87
